sensor_id;sensor_type;location;lat;lon;timestamp;pressure;altitude;pressure_sealevel;temperature;humidity
12207;BME280;6166;42.806;23.408;2022-08-19T00:01:46;71581.50;;;-144.35;64.32
12207;BME280;6166;42.806;23.408;2022-08-19T00:04:15;71585.66;;;-144.35;64.26
12207;BME280;6166;42.806;23.408;2022-08-19T00:06:46;71585.66;;;-144.35;64.13
12207;BME280;6166;42.806;23.408;2022-08-19T00:09:15;71593.91;;;-144.35;64.35
12207;BME280;6166;42.806;23.408;2022-08-19T00:11:42;71598.03;;;-144.35;64.23
12207;BME280;6166;42.806;23.408;2022-08-19T00:14:11;71610.41;;;-144.35;64.49
12207;BME280;6166;42.806;23.408;2022-08-19T00:16:39;71641.38;;;-144.35;65.25
12207;BME280;6166;42.806;23.408;2022-08-19T00:19:07;71629.00;;;-144.35;65.18
12207;BME280;6166;42.806;23.408;2022-08-19T00:21:34;71626.94;;;-144.35;65.35
12207;BME280;6166;42.806;23.408;2022-08-19T00:24:05;71618.69;;;-144.35;65.14
12207;BME280;6166;42.806;23.408;2022-08-19T00:26:32;71633.13;;;-144.35;65.15
12207;BME280;6166;42.806;23.408;2022-08-19T00:28:58;71635.19;;;-144.35;65.30
12207;BME280;6166;42.806;23.408;2022-08-19T00:31:26;71635.19;;;-144.35;65.44
12207;BME280;6166;42.806;23.408;2022-08-19T00:33:53;71633.13;;;-144.35;65.32
12207;BME280;6166;42.806;23.408;2022-08-19T00:36:20;71629.00;;;-144.35;65.50
12207;BME280;6166;42.806;23.408;2022-08-19T00:38:47;71633.13;;;-144.35;65.35
12207;BME280;6166;42.806;23.408;2022-08-19T00:41:17;71641.38;;;-144.35;65.53
12207;BME280;6166;42.806;23.408;2022-08-19T00:43:57;71651.72;;;-144.35;65.50
12207;BME280;6166;42.806;23.408;2022-08-19T00:46:24;71647.59;;;-144.35;65.45
12207;BME280;6166;42.806;23.408;2022-08-19T00:48:51;71651.72;;;-144.35;65.00
12207;BME280;6166;42.806;23.408;2022-08-19T00:51:18;71668.22;;;-144.35;65.86
12207;BME280;6166;42.806;23.408;2022-08-19T00:53:45;71676.50;;;-144.35;65.98
12207;BME280;6166;42.806;23.408;2022-08-19T00:56:12;71664.09;;;-144.35;66.54
12207;BME280;6166;42.806;23.408;2022-08-19T00:58:40;71664.09;;;-144.35;66.69
12207;BME280;6166;42.806;23.408;2022-08-19T01:01:06;71672.34;;;-144.35;66.93
12207;BME280;6166;42.806;23.408;2022-08-19T01:03:34;71668.22;;;-144.35;66.62
12207;BME280;6166;42.806;23.408;2022-08-19T01:06:01;71664.09;;;-144.35;66.72
12207;BME280;6166;42.806;23.408;2022-08-19T01:08:27;71676.50;;;-144.35;66.66
12207;BME280;6166;42.806;23.408;2022-08-19T01:10:56;71680.63;;;-144.35;66.28
12207;BME280;6166;42.806;23.408;2022-08-19T01:13:25;71674.41;;;-144.35;66.51
12207;BME280;6166;42.806;23.408;2022-08-19T01:16:00;71699.19;;;-144.35;67.17
12207;BME280;6166;42.806;23.408;2022-08-19T01:18:28;71680.63;;;-144.35;67.33
12207;BME280;6166;42.806;23.408;2022-08-19T01:20:58;71676.50;;;-144.35;67.48
12207;BME280;6166;42.806;23.408;2022-08-19T01:23:27;71680.63;;;-144.35;67.58
12207;BME280;6166;42.806;23.408;2022-08-19T01:26:10;71674.41;;;-144.35;67.39
12207;BME280;6166;42.806;23.408;2022-08-19T01:28:37;71682.69;;;-144.35;67.54
12207;BME280;6166;42.806;23.408;2022-08-19T01:31:06;71697.13;;;-144.35;67.31
12207;BME280;6166;42.806;23.408;2022-08-19T01:33:33;71701.25;;;-144.35;67.55
12207;BME280;6166;42.806;23.408;2022-08-19T01:36:10;71705.41;;;-144.35;67.48
12207;BME280;6166;42.806;23.408;2022-08-19T01:38:41;71697.13;;;-144.35;66.73
12207;BME280;6166;42.806;23.408;2022-08-19T01:41:09;71699.19;;;-144.35;66.92
12207;BME280;6166;42.806;23.408;2022-08-19T01:43:36;71701.25;;;-144.35;67.36
12207;BME280;6166;42.806;23.408;2022-08-19T01:46:03;71705.41;;;-144.35;67.62
12207;BME280;6166;42.806;23.408;2022-08-19T01:48:34;71715.72;;;-144.35;67.54
12207;BME280;6166;42.806;23.408;2022-08-19T01:51:01;71717.78;;;-144.35;67.78
12207;BME280;6166;42.806;23.408;2022-08-19T01:53:28;71721.91;;;-144.35;67.94
12207;BME280;6166;42.806;23.408;2022-08-19T01:55:56;71732.22;;;-144.35;68.19
12207;BME280;6166;42.806;23.408;2022-08-19T01:58:27;71734.28;;;-144.35;68.30
12207;BME280;6166;42.806;23.408;2022-08-19T02:00:57;71734.28;;;-144.35;68.58
12207;BME280;6166;42.806;23.408;2022-08-19T02:03:25;71734.28;;;-144.35;68.68
12207;BME280;6166;42.806;23.408;2022-08-19T02:05:55;71742.56;;;-144.35;68.96
12207;BME280;6166;42.806;23.408;2022-08-19T02:08:23;71748.75;;;-144.35;68.96
12207;BME280;6166;42.806;23.408;2022-08-19T02:10:50;71750.81;;;-144.35;69.00
12207;BME280;6166;42.806;23.408;2022-08-19T02:13:19;71750.81;;;-144.35;69.00
12207;BME280;6166;42.806;23.408;2022-08-19T02:15:45;71757.00;;;-144.35;69.15
12207;BME280;6166;42.806;23.408;2022-08-19T02:18:12;71769.41;;;-144.35;69.35
12207;BME280;6166;42.806;23.408;2022-08-19T02:20:40;71775.59;;;-144.35;69.51
12207;BME280;6166;42.806;23.408;2022-08-19T02:23:09;71804.50;;;-144.35;70.45
12207;BME280;6166;42.806;23.408;2022-08-19T02:25:36;71845.78;;;-144.35;72.02
12207;BME280;6166;42.806;23.408;2022-08-19T02:28:04;71837.53;;;-144.35;72.03
12207;BME280;6166;42.806;23.408;2022-08-19T02:30:32;71841.66;;;-144.35;72.24
12207;BME280;6166;42.806;23.408;2022-08-19T02:32:59;71835.47;;;-144.35;72.18
12207;BME280;6166;42.806;23.408;2022-08-19T02:35:26;71829.28;;;-144.35;72.26
12207;BME280;6166;42.806;23.408;2022-08-19T02:37:53;71833.41;;;-144.35;72.29
12207;BME280;6166;42.806;23.408;2022-08-19T02:40:37;71825.16;;;-144.35;72.55
12207;BME280;6166;42.806;23.408;2022-08-19T02:43:05;71816.88;;;-144.35;72.76
12207;BME280;6166;42.806;23.408;2022-08-19T02:45:36;71823.09;;;-144.35;73.06
12207;BME280;6166;42.806;23.408;2022-08-19T02:48:03;71816.88;;;-144.35;73.05
12207;BME280;6166;42.806;23.408;2022-08-19T02:50:30;71814.81;;;-144.35;72.67
12207;BME280;6166;42.806;23.408;2022-08-19T02:52:57;71808.63;;;-144.35;72.28
12207;BME280;6166;42.806;23.408;2022-08-19T02:55:24;71812.75;;;-144.35;72.58
12207;BME280;6166;42.806;23.408;2022-08-19T02:57:51;71816.88;;;-144.35;72.52
12207;BME280;6166;42.806;23.408;2022-08-19T03:00:18;71812.75;;;-144.35;72.15
12207;BME280;6166;42.806;23.408;2022-08-19T03:02:46;71816.88;;;-144.35;72.14
12207;BME280;6166;42.806;23.408;2022-08-19T03:05:14;71818.94;;;-144.35;71.87
12207;BME280;6166;42.806;23.408;2022-08-19T03:07:41;71816.88;;;-144.35;71.82
12207;BME280;6166;42.806;23.408;2022-08-19T03:10:08;71812.75;;;-144.35;71.75
12207;BME280;6166;42.806;23.408;2022-08-19T03:12:36;71823.09;;;-144.35;71.82
12207;BME280;6166;42.806;23.408;2022-08-19T03:15:04;71823.09;;;-144.35;71.47
12207;BME280;6166;42.806;23.408;2022-08-19T03:17:33;71825.16;;;-144.35;71.82
12207;BME280;6166;42.806;23.408;2022-08-19T03:20:02;71833.41;;;-144.35;72.16
12207;BME280;6166;42.806;23.408;2022-08-19T03:22:29;71825.16;;;-144.35;72.63
12207;BME280;6166;42.806;23.408;2022-08-19T03:24:56;71829.28;;;-144.35;72.74
12207;BME280;6166;42.806;23.408;2022-08-19T03:27:22;71821.03;;;-144.35;72.42
12207;BME280;6166;42.806;23.408;2022-08-19T03:29:49;71825.16;;;-144.35;72.71
12207;BME280;6166;42.806;23.408;2022-08-19T03:32:16;71833.41;;;-144.35;72.71
12207;BME280;6166;42.806;23.408;2022-08-19T03:34:43;71845.78;;;-144.35;73.10
12207;BME280;6166;42.806;23.408;2022-08-19T03:37:11;71862.31;;;-144.35;73.73
12207;BME280;6166;42.806;23.408;2022-08-19T03:39:39;71864.38;;;-144.35;73.73
12207;BME280;6166;42.806;23.408;2022-08-19T03:42:08;71862.31;;;-144.35;73.73
12207;BME280;6166;42.806;23.408;2022-08-19T03:44:35;71862.31;;;-144.35;73.67
12207;BME280;6166;42.806;23.408;2022-08-19T03:47:03;71866.44;;;-144.35;73.47
12207;BME280;6166;42.806;23.408;2022-08-19T03:49:31;71866.44;;;-144.35;73.36
12207;BME280;6166;42.806;23.408;2022-08-19T03:52:00;71866.44;;;-144.35;73.34
12207;BME280;6166;42.806;23.408;2022-08-19T03:54:29;71872.63;;;-144.35;73.41
12207;BME280;6166;42.806;23.408;2022-08-19T03:56:56;71866.44;;;-144.35;73.34
12207;BME280;6166;42.806;23.408;2022-08-19T03:59:25;71870.56;;;-144.35;73.34
12207;BME280;6166;42.806;23.408;2022-08-19T04:01:52;71868.50;;;-144.35;73.50
12207;BME280;6166;42.806;23.408;2022-08-19T04:04:20;71880.91;;;-144.35;73.91
12207;BME280;6166;42.806;23.408;2022-08-19T04:06:47;71882.97;;;-144.35;74.10
12207;BME280;6166;42.806;23.408;2022-08-19T04:09:13;71882.97;;;-144.35;74.38
12207;BME280;6166;42.806;23.408;2022-08-19T04:11:44;71882.97;;;-144.35;74.48
12207;BME280;6166;42.806;23.408;2022-08-19T04:14:14;71882.97;;;-144.35;74.57
12207;BME280;6166;42.806;23.408;2022-08-19T04:16:41;71874.69;;;-144.35;74.49
12207;BME280;6166;42.806;23.408;2022-08-19T04:19:09;71870.56;;;-144.35;74.62
12207;BME280;6166;42.806;23.408;2022-08-19T04:21:36;71866.44;;;-144.35;74.52
12207;BME280;6166;42.806;23.408;2022-08-19T04:24:03;71858.19;;;-144.35;74.23
12207;BME280;6166;42.806;23.408;2022-08-19T04:26:32;71858.19;;;-144.35;74.41
12207;BME280;6166;42.806;23.408;2022-08-19T04:29:03;71849.94;;;-144.35;74.85
12207;BME280;6166;42.806;23.408;2022-08-19T04:31:31;71833.41;;;-144.35;74.39
12207;BME280;6166;42.806;23.408;2022-08-19T04:34:03;71829.28;;;-144.35;74.47
12207;BME280;6166;42.806;23.408;2022-08-19T04:36:32;71821.03;;;-144.35;74.51
12207;BME280;6166;42.806;23.408;2022-08-19T04:39:04;71798.31;;;-144.35;73.68
12207;BME280;6166;42.806;23.408;2022-08-19T04:41:32;71792.13;;;-144.35;73.09
12207;BME280;6166;42.806;23.408;2022-08-19T04:44:18;71773.53;;;-144.35;72.81
12207;BME280;6166;42.806;23.408;2022-08-19T04:46:47;71759.06;;;-144.35;72.63
12207;BME280;6166;42.806;23.408;2022-08-19T04:49:16;71746.69;;;-144.35;72.00
12207;BME280;6166;42.806;23.408;2022-08-19T04:51:45;71728.09;;;-144.35;72.38
12207;BME280;6166;42.806;23.408;2022-08-19T04:54:13;71711.59;;;-144.35;72.25
12207;BME280;6166;42.806;23.408;2022-08-19T04:56:40;71709.53;;;-144.35;71.47
12207;BME280;6166;42.806;23.408;2022-08-19T04:59:07;71693.00;;;-144.35;71.09
12207;BME280;6166;42.806;23.408;2022-08-19T05:01:35;71697.13;;;-144.35;70.34
12207;BME280;6166;42.806;23.408;2022-08-19T05:04:05;71678.56;;;-144.35;70.07
12207;BME280;6166;42.806;23.408;2022-08-19T05:06:33;71680.63;;;-144.35;69.46
12207;BME280;6166;42.806;23.408;2022-08-19T05:09:00;71672.34;;;-144.35;70.71
12207;BME280;6166;42.806;23.408;2022-08-19T05:11:30;71688.88;;;-144.35;71.41
12207;BME280;6166;42.806;23.408;2022-08-19T05:13:57;71693.00;;;-144.35;71.96
12207;BME280;6166;42.806;23.408;2022-08-19T05:16:25;71709.53;;;-144.35;73.03
12207;BME280;6166;42.806;23.408;2022-08-19T05:18:55;71705.41;;;-144.35;73.16
12207;BME280;6166;42.806;23.408;2022-08-19T05:21:40;71666.16;;;-144.35;72.97
12207;BME280;6166;42.806;23.408;2022-08-19T05:24:25;71647.59;;;-144.35;71.59
12207;BME280;6166;42.806;23.408;2022-08-19T05:26:54;71659.97;;;-144.35;71.13
12207;BME280;6166;42.806;23.408;2022-08-19T05:29:23;71655.84;;;-144.35;70.78
12207;BME280;6166;42.806;23.408;2022-08-19T05:31:51;71649.66;;;-144.35;70.87
12207;BME280;6166;42.806;23.408;2022-08-19T05:34:22;71668.22;;;-144.35;70.68
12207;BME280;6166;42.806;23.408;2022-08-19T05:36:51;71633.13;;;-144.35;69.25
12207;BME280;6166;42.806;23.408;2022-08-19T05:39:21;71643.44;;;-144.35;69.43
12207;BME280;6166;42.806;23.408;2022-08-19T05:41:49;71641.38;;;-144.35;69.61
12207;BME280;6166;42.806;23.408;2022-08-19T05:44:17;71610.41;;;-144.35;69.01
12207;BME280;6166;42.806;23.408;2022-08-19T05:46:44;71589.78;;;-144.35;68.17
12207;BME280;6166;42.806;23.408;2022-08-19T05:49:13;71602.16;;;-144.35;69.59
12207;BME280;6166;42.806;23.408;2022-08-19T05:51:42;71577.38;;;-144.35;68.22
12207;BME280;6166;42.806;23.408;2022-08-19T05:54:09;71552.59;;;-144.35;67.63
12207;BME280;6166;42.806;23.408;2022-08-19T05:56:39;71536.09;;;-144.35;66.82
12207;BME280;6166;42.806;23.408;2022-08-19T05:59:07;71507.19;;;-144.35;66.17
12207;BME280;6166;42.806;23.408;2022-08-19T06:01:35;71490.69;;;-144.35;65.77
12207;BME280;6166;42.806;23.408;2022-08-19T06:04:04;71461.78;;;-144.35;64.98
12207;BME280;6166;42.806;23.408;2022-08-19T06:06:32;71478.28;;;-144.35;64.24
12207;BME280;6166;42.806;23.408;2022-08-19T06:09:02;71486.53;;;-144.35;64.76
12207;BME280;6166;42.806;23.408;2022-08-19T06:11:33;71457.63;;;-144.35;63.59
12207;BME280;6166;42.806;23.408;2022-08-19T06:14:02;71439.06;;;-144.35;63.77
12207;BME280;6166;42.806;23.408;2022-08-19T06:16:29;71420.47;;;-144.35;62.66
12207;BME280;6166;42.806;23.408;2022-08-19T06:18:59;71389.50;;;-144.35;61.61
12207;BME280;6166;42.806;23.408;2022-08-19T06:21:28;71391.56;;;-144.35;61.87
12207;BME280;6166;42.806;23.408;2022-08-19T06:23:56;71366.81;;;-144.35;63.05
12207;BME280;6166;42.806;23.408;2022-08-19T06:26:25;71350.28;;;-144.35;60.65
12207;BME280;6166;42.806;23.408;2022-08-19T06:28:52;71329.66;;;-144.35;59.66
12207;BME280;6166;42.806;23.408;2022-08-19T06:31:21;71339.97;;;-144.35;59.88
12207;BME280;6166;42.806;23.408;2022-08-19T06:33:49;71313.13;;;-144.35;59.25
12207;BME280;6166;42.806;23.408;2022-08-19T06:36:17;71288.34;;;-144.35;58.93
12207;BME280;6166;42.806;23.408;2022-08-19T06:38:44;71255.31;;;-144.35;56.25
12207;BME280;6166;42.806;23.408;2022-08-19T06:41:11;71242.94;;;-144.35;55.74
12207;BME280;6166;42.806;23.408;2022-08-19T06:43:39;71234.69;;;-144.35;55.75
12207;BME280;6166;42.806;23.408;2022-08-19T06:46:10;71209.91;;;-144.35;53.91
12207;BME280;6166;42.806;23.408;2022-08-19T06:48:38;71197.53;;;-144.35;53.71
12207;BME280;6166;42.806;23.408;2022-08-19T06:51:05;71193.38;;;-144.35;54.80
12207;BME280;6166;42.806;23.408;2022-08-19T06:53:32;71172.75;;;-144.35;53.00
12207;BME280;6166;42.806;23.408;2022-08-19T06:55:59;71141.78;;;-144.35;53.88
12207;BME280;6166;42.806;23.408;2022-08-19T06:58:28;71123.19;;;-144.35;51.63
12207;BME280;6166;42.806;23.408;2022-08-19T07:00:59;71108.75;;;-144.35;50.88
12207;BME280;6166;42.806;23.408;2022-08-19T07:03:29;71090.19;;;-144.35;49.08
12207;BME280;6166;42.806;23.408;2022-08-19T07:05:57;71094.31;;;-144.35;48.88
12207;BME280;6166;42.806;23.408;2022-08-19T07:08:24;71063.34;;;-144.35;50.51
12207;BME280;6166;42.806;23.408;2022-08-19T07:10:52;71044.75;;;-144.35;49.07
12207;BME280;6166;42.806;23.408;2022-08-19T07:13:20;71017.91;;;-144.35;46.86
12207;BME280;6166;42.806;23.408;2022-08-19T07:15:48;71032.38;;;-144.35;47.80
12207;BME280;6166;42.806;23.408;2022-08-19T07:18:17;70986.97;;;-144.35;43.79
12207;BME280;6166;42.806;23.408;2022-08-19T07:20:44;70986.97;;;-144.35;43.09
12207;BME280;6166;42.806;23.408;2022-08-19T07:23:11;70958.06;;;-144.35;43.70
12207;BME280;6166;42.806;23.408;2022-08-19T07:25:39;70964.25;;;-144.35;43.84
12207;BME280;6166;42.806;23.408;2022-08-19T07:28:06;70933.28;;;-144.35;44.49
12207;BME280;6166;42.806;23.408;2022-08-19T07:30:36;70929.16;;;-144.35;43.75
12207;BME280;6166;42.806;23.408;2022-08-19T07:33:03;70916.78;;;-144.35;43.06
12207;BME280;6166;42.806;23.408;2022-08-19T07:35:32;70906.44;;;-144.35;41.65
12207;BME280;6166;42.806;23.408;2022-08-19T07:37:59;70871.38;;;-144.35;41.53
12207;BME280;6166;42.806;23.408;2022-08-19T07:40:28;70854.84;;;-144.35;42.08
12207;BME280;6166;42.806;23.408;2022-08-19T07:42:55;70830.06;;;-144.35;39.90
12207;BME280;6166;42.806;23.408;2022-08-19T07:45:22;70811.50;;;-144.35;39.21
12207;BME280;6166;42.806;23.408;2022-08-19T07:47:49;70834.22;;;-144.35;38.97
12207;BME280;6166;42.806;23.408;2022-08-19T07:50:17;70799.13;;;-144.35;39.55
12207;BME280;6166;42.806;23.408;2022-08-19T07:52:46;70772.28;;;-144.35;37.82
12207;BME280;6166;42.806;23.408;2022-08-19T07:55:17;70743.38;;;-144.35;37.35
12207;BME280;6166;42.806;23.408;2022-08-19T07:57:44;70722.75;;;-144.35;37.75
12207;BME280;6166;42.806;23.408;2022-08-19T08:00:12;70710.34;;;-144.35;38.22
12207;BME280;6166;42.806;23.408;2022-08-19T08:02:39;70706.22;;;-144.35;37.43
12207;BME280;6166;42.806;23.408;2022-08-19T08:05:08;70693.84;;;-144.35;37.87
12207;BME280;6166;42.806;23.408;2022-08-19T08:07:54;70679.41;;;-144.35;36.64
12207;BME280;6166;42.806;23.408;2022-08-19T08:10:39;70656.69;;;-144.35;36.55
12207;BME280;6166;42.806;23.408;2022-08-19T08:13:06;70634.00;;;-144.35;36.37
12207;BME280;6166;42.806;23.408;2022-08-19T08:15:33;70640.19;;;-144.35;35.77
12207;BME280;6166;42.806;23.408;2022-08-19T08:18:00;70726.88;;;-144.35;36.10
12207;BME280;6166;42.806;23.408;2022-08-19T08:20:27;70745.44;;;-144.35;36.55
12207;BME280;6166;42.806;23.408;2022-08-19T08:22:55;70702.09;;;-144.35;36.14
12207;BME280;6166;42.806;23.408;2022-08-19T08:25:39;70656.69;;;-144.35;36.11
12207;BME280;6166;42.806;23.408;2022-08-19T08:28:06;70640.19;;;-144.35;36.71
12207;BME280;6166;42.806;23.408;2022-08-19T08:30:34;70648.44;;;-144.35;34.29
12207;BME280;6166;42.806;23.408;2022-08-19T08:33:02;70594.78;;;-144.35;34.87
12207;BME280;6166;42.806;23.408;2022-08-19T08:35:29;70596.84;;;-144.35;34.61
12207;BME280;6166;42.806;23.408;2022-08-19T08:37:57;70598.91;;;-144.35;34.35
12207;BME280;6166;42.806;23.408;2022-08-19T08:40:28;70570.00;;;-144.35;34.19
12207;BME280;6166;42.806;23.408;2022-08-19T08:42:59;70636.06;;;-144.35;33.49
12207;BME280;6166;42.806;23.408;2022-08-19T08:45:30;70621.59;;;-144.35;34.38
12207;BME280;6166;42.806;23.408;2022-08-19T08:48:04;70578.25;;;-144.35;34.59
12207;BME280;6166;42.806;23.408;2022-08-19T08:50:41;70520.47;;;-144.35;34.11
12207;BME280;6166;42.806;23.408;2022-08-19T08:53:13;70483.31;;;-144.35;33.45
12207;BME280;6166;42.806;23.408;2022-08-19T08:55:41;70493.63;;;-144.35;34.53
12207;BME280;6166;42.806;23.408;2022-08-19T08:58:12;70470.94;;;-144.35;32.99
12207;BME280;6166;42.806;23.408;2022-08-19T09:00:43;70450.28;;;-144.35;32.72
12207;BME280;6166;42.806;23.408;2022-08-19T09:03:17;70477.13;;;-144.35;33.04
12207;BME280;6166;42.806;23.408;2022-08-19T09:05:56;70437.91;;;-144.35;32.51
12207;BME280;6166;42.806;23.408;2022-08-19T09:08:33;70429.66;;;-144.35;33.61
12207;BME280;6166;42.806;23.408;2022-08-19T09:11:07;70371.88;;;-144.35;32.67
12207;BME280;6166;42.806;23.408;2022-08-19T09:13:42;70361.53;;;-144.35;31.03
12207;BME280;6166;42.806;23.408;2022-08-19T09:16:22;70326.47;;;-144.35;31.76
12207;BME280;6166;42.806;23.408;2022-08-19T09:18:55;70373.94;;;-144.35;32.93
12207;BME280;6166;42.806;23.408;2022-08-19T09:21:29;70309.94;;;-144.35;32.23
12207;BME280;6166;42.806;23.408;2022-08-19T09:23:58;70281.06;;;-144.35;31.65
12207;BME280;6166;42.806;23.408;2022-08-19T09:26:25;70272.81;;;-144.35;31.57
12207;BME280;6166;42.806;23.408;2022-08-19T09:28:53;70260.41;;;-144.35;30.16
12207;BME280;6166;42.806;23.408;2022-08-19T09:31:21;70231.53;;;-144.35;30.94
12207;BME280;6166;42.806;23.408;2022-08-19T09:33:49;70219.16;;;-144.35;30.19
12207;BME280;6166;42.806;23.408;2022-08-19T09:36:18;70210.88;;;-144.35;29.52
12207;BME280;6166;42.806;23.408;2022-08-19T09:38:45;70165.47;;;-144.35;30.29
12207;BME280;6166;42.806;23.408;2022-08-19T09:41:15;70151.03;;;-144.35;29.13
12207;BME280;6166;42.806;23.408;2022-08-19T09:43:45;70130.41;;;-144.35;28.78
12207;BME280;6166;42.806;23.408;2022-08-19T09:46:13;70118.03;;;-144.35;29.19
12207;BME280;6166;42.806;23.408;2022-08-19T09:48:43;70136.59;;;-144.35;28.48
12207;BME280;6166;42.806;23.408;2022-08-19T09:51:12;70136.59;;;-144.35;28.61
12207;BME280;6166;42.806;23.408;2022-08-19T09:53:41;70095.31;;;-144.35;28.56
12207;BME280;6166;42.806;23.408;2022-08-19T09:56:08;70120.09;;;-144.35;28.09
12207;BME280;6166;42.806;23.408;2022-08-19T09:58:37;70087.06;;;-144.35;28.37
12207;BME280;6166;42.806;23.408;2022-08-19T10:01:06;70076.75;;;-144.35;28.52
12207;BME280;6166;42.806;23.408;2022-08-19T10:03:34;70103.56;;;-144.35;28.39
12207;BME280;6166;42.806;23.408;2022-08-19T10:06:04;70163.41;;;-144.35;28.28
12207;BME280;6166;42.806;23.408;2022-08-19T10:08:33;70091.19;;;-144.35;29.52
12207;BME280;6166;42.806;23.408;2022-08-19T10:11:01;70068.50;;;-144.35;27.73
12207;BME280;6166;42.806;23.408;2022-08-19T10:13:33;70095.31;;;-144.35;27.77
12207;BME280;6166;42.806;23.408;2022-08-19T10:16:16;70078.81;;;-144.35;27.62
12207;BME280;6166;42.806;23.408;2022-08-19T10:18:45;70016.91;;;-144.35;27.46
12207;BME280;6166;42.806;23.408;2022-08-19T10:21:18;69979.75;;;-144.35;27.21
12207;BME280;6166;42.806;23.408;2022-08-19T10:23:50;70091.19;;;-144.35;27.97
12207;BME280;6166;42.806;23.408;2022-08-19T10:26:20;70049.91;;;-144.35;28.21
12207;BME280;6166;42.806;23.408;2022-08-19T10:28:47;70021.03;;;-144.35;28.00
12207;BME280;6166;42.806;23.408;2022-08-19T10:31:17;70016.91;;;-144.35;27.50
12207;BME280;6166;42.806;23.408;2022-08-19T10:33:46;70047.84;;;-144.35;27.69
12207;BME280;6166;42.806;23.408;2022-08-19T10:36:16;69971.50;;;-144.35;28.36
12207;BME280;6166;42.806;23.408;2022-08-19T10:38:44;69893.09;;;-144.35;28.29
12207;BME280;6166;42.806;23.408;2022-08-19T10:41:13;69843.56;;;-144.35;26.95
12207;BME280;6166;42.806;23.408;2022-08-19T10:43:41;69973.56;;;-144.35;26.95
12207;BME280;6166;42.806;23.408;2022-08-19T10:46:11;69975.63;;;-144.35;26.75
12207;BME280;6166;42.806;23.408;2022-08-19T10:48:40;70072.63;;;-144.35;27.40
12207;BME280;6166;42.806;23.408;2022-08-19T10:51:08;70091.19;;;-144.35;27.60
12207;BME280;6166;42.806;23.408;2022-08-19T10:53:52;70037.53;;;-144.35;27.58
12207;BME280;6166;42.806;23.408;2022-08-19T10:56:18;69975.63;;;-144.35;26.91
12207;BME280;6166;42.806;23.408;2022-08-19T10:59:03;69930.22;;;-144.35;27.35
12207;BME280;6166;42.806;23.408;2022-08-19T11:01:31;69905.47;;;-144.35;26.91
12207;BME280;6166;42.806;23.408;2022-08-19T11:04:01;69878.63;;;-144.35;26.84
12207;BME280;6166;42.806;23.408;2022-08-19T11:06:28;69860.06;;;-144.35;26.56
12207;BME280;6166;42.806;23.408;2022-08-19T11:08:55;69868.31;;;-144.35;26.65
12207;BME280;6166;42.806;23.408;2022-08-19T11:11:27;69928.16;;;-144.35;26.78
12207;BME280;6166;42.806;23.408;2022-08-19T11:13:54;69926.09;;;-144.35;26.38
12207;BME280;6166;42.806;23.408;2022-08-19T11:16:26;69921.97;;;-144.35;26.83
12207;BME280;6166;42.806;23.408;2022-08-19T11:18:57;69911.66;;;-144.35;26.76
12207;BME280;6166;42.806;23.408;2022-08-19T11:21:28;69903.41;;;-144.35;27.44
12207;BME280;6166;42.806;23.408;2022-08-19T11:23:59;69884.81;;;-144.35;26.69
12207;BME280;6166;42.806;23.408;2022-08-19T11:26:28;69907.53;;;-144.35;26.83
12207;BME280;6166;42.806;23.408;2022-08-19T11:28:56;69930.22;;;-144.35;26.70
12207;BME280;6166;42.806;23.408;2022-08-19T11:31:24;69901.34;;;-144.35;26.53
12207;BME280;6166;42.806;23.408;2022-08-19T11:33:51;69893.09;;;-144.35;26.19
12207;BME280;6166;42.806;23.408;2022-08-19T11:36:20;69888.94;;;-144.35;26.11
12207;BME280;6166;42.806;23.408;2022-08-19T11:38:49;69866.25;;;-144.35;26.93
12207;BME280;6166;42.806;23.408;2022-08-19T11:41:21;69798.16;;;-144.35;25.93
12207;BME280;6166;42.806;23.408;2022-08-19T11:43:49;69777.53;;;-144.35;25.74
12207;BME280;6166;42.806;23.408;2022-08-19T11:46:18;69785.78;;;-144.35;25.95
12207;BME280;6166;42.806;23.408;2022-08-19T11:48:45;69785.78;;;-144.35;25.57
12207;BME280;6166;42.806;23.408;2022-08-19T11:51:14;69752.75;;;-144.35;26.05
12207;BME280;6166;42.806;23.408;2022-08-19T11:53:42;69756.88;;;-144.35;25.34
12207;BME280;6166;42.806;23.408;2022-08-19T11:56:10;69816.72;;;-144.35;26.14
12207;BME280;6166;42.806;23.408;2022-08-19T11:58:37;69812.59;;;-144.35;25.84
12207;BME280;6166;42.806;23.408;2022-08-19T12:01:06;69779.59;;;-144.35;26.12
12207;BME280;6166;42.806;23.408;2022-08-19T12:03:33;69798.16;;;-144.35;25.85
12207;BME280;6166;42.806;23.408;2022-08-19T12:06:03;69845.63;;;-144.35;25.93
12207;BME280;6166;42.806;23.408;2022-08-19T12:08:30;69843.56;;;-144.35;26.25
12207;BME280;6166;42.806;23.408;2022-08-19T12:10:57;69843.56;;;-144.35;26.49
12207;BME280;6166;42.806;23.408;2022-08-19T12:13:27;69862.13;;;-144.35;26.19
12207;BME280;6166;42.806;23.408;2022-08-19T12:15:54;69818.78;;;-144.35;25.95
12207;BME280;6166;42.806;23.408;2022-08-19T12:18:21;69831.19;;;-144.35;26.12
12207;BME280;6166;42.806;23.408;2022-08-19T12:20:50;69769.28;;;-144.35;25.32
12207;BME280;6166;42.806;23.408;2022-08-19T12:23:18;69748.63;;;-144.35;25.57
12207;BME280;6166;42.806;23.408;2022-08-19T12:25:46;69725.94;;;-144.35;25.51
12207;BME280;6166;42.806;23.408;2022-08-19T12:28:15;69719.75;;;-144.35;25.51
12207;BME280;6166;42.806;23.408;2022-08-19T12:30:44;69728.00;;;-144.35;25.33
12207;BME280;6166;42.806;23.408;2022-08-19T12:33:11;69744.50;;;-144.35;25.58
12207;BME280;6166;42.806;23.408;2022-08-19T12:35:40;69725.94;;;-144.35;25.59
12207;BME280;6166;42.806;23.408;2022-08-19T12:38:09;69682.59;;;-144.35;25.62
12207;BME280;6166;42.806;23.408;2022-08-19T12:40:35;69752.75;;;-144.35;25.44
12207;BME280;6166;42.806;23.408;2022-08-19T12:43:09;69771.34;;;-144.35;25.58
12207;BME280;6166;42.806;23.408;2022-08-19T12:45:37;69794.03;;;-144.35;26.04
12207;BME280;6166;42.806;23.408;2022-08-19T12:48:05;69719.75;;;-144.35;26.01
12207;BME280;6166;42.806;23.408;2022-08-19T12:50:34;69676.41;;;-144.35;25.51